sensor_id;sensor_type;location;lat;lon;timestamp;P1;durP1;ratioP1;P2;durP2;ratioP2
17384;SDS011;8810;48.680;8.894;2022-08-19T00:00:17;15.15;;;10.85;;
17384;SDS011;8810;48.680;8.894;2022-08-19T00:02:44;15.07;;;10.77;;
17384;SDS011;8810;48.680;8.894;2022-08-19T00:05:12;14.80;;;11.05;;
17384;SDS011;8810;48.680;8.894;2022-08-19T00:07:41;13.93;;;10.45;;
17384;SDS011;8810;48.680;8.894;2022-08-19T00:10:09;16.02;;;11.63;;
17384;SDS011;8810;48.680;8.894;2022-08-19T00:12:37;15.18;;;11.43;;
17384;SDS011;8810;48.680;8.894;2022-08-19T00:15:07;15.07;;;11.32;;
17384;SDS011;8810;48.680;8.894;2022-08-19T00:17:36;16.20;;;10.80;;
17384;SDS011;8810;48.680;8.894;2022-08-19T00:20:04;16.88;;;11.20;;
17384;SDS011;8810;48.680;8.894;2022-08-19T00:22:31;19.30;;;11.82;;
17384;SDS011;8810;48.680;8.894;2022-08-19T00:24:58;16.98;;;11.45;;
17384;SDS011;8810;48.680;8.894;2022-08-19T00:27:25;20.75;;;12.10;;
17384;SDS011;8810;48.680;8.894;2022-08-19T00:29:52;18.20;;;11.77;;
17384;SDS011;8810;48.680;8.894;2022-08-19T00:32:20;19.70;;;11.93;;
17384;SDS011;8810;48.680;8.894;2022-08-19T00:34:48;17.52;;;12.50;;
17384;SDS011;8810;48.680;8.894;2022-08-19T00:37:16;18.13;;;13.13;;
17384;SDS011;8810;48.680;8.894;2022-08-19T00:39:43;16.30;;;12.63;;
17384;SDS011;8810;48.680;8.894;2022-08-19T00:42:10;18.65;;;12.60;;
17384;SDS011;8810;48.680;8.894;2022-08-19T00:44:38;17.60;;;12.88;;
17384;SDS011;8810;48.680;8.894;2022-08-19T00:47:05;22.88;;;13.85;;
17384;SDS011;8810;48.680;8.894;2022-08-19T00:49:34;18.73;;;12.43;;
17384;SDS011;8810;48.680;8.894;2022-08-19T00:52:04;18.80;;;13.02;;
17384;SDS011;8810;48.680;8.894;2022-08-19T00:54:34;19.50;;;13.55;;
17384;SDS011;8810;48.680;8.894;2022-08-19T00:57:04;19.90;;;13.73;;
17384;SDS011;8810;48.680;8.894;2022-08-19T00:59:35;18.88;;;13.27;;
17384;SDS011;8810;48.680;8.894;2022-08-19T01:02:05;17.40;;;13.38;;
17384;SDS011;8810;48.680;8.894;2022-08-19T01:04:34;19.42;;;13.52;;
17384;SDS011;8810;48.680;8.894;2022-08-19T01:07:01;21.58;;;13.18;;
17384;SDS011;8810;48.680;8.894;2022-08-19T01:09:28;20.85;;;13.35;;
17384;SDS011;8810;48.680;8.894;2022-08-19T01:11:55;19.00;;;13.00;;
17384;SDS011;8810;48.680;8.894;2022-08-19T01:14:23;19.25;;;12.98;;
17384;SDS011;8810;48.680;8.894;2022-08-19T01:16:51;19.42;;;12.85;;
17384;SDS011;8810;48.680;8.894;2022-08-19T01:19:23;19.85;;;13.32;;
17384;SDS011;8810;48.680;8.894;2022-08-19T01:21:55;23.45;;;14.40;;
17384;SDS011;8810;48.680;8.894;2022-08-19T01:24:28;18.27;;;13.10;;
17384;SDS011;8810;48.680;8.894;2022-08-19T01:26:55;20.48;;;14.18;;
17384;SDS011;8810;48.680;8.894;2022-08-19T01:29:23;19.20;;;13.80;;
17384;SDS011;8810;48.680;8.894;2022-08-19T01:31:50;20.90;;;13.10;;
17384;SDS011;8810;48.680;8.894;2022-08-19T01:34:18;18.33;;;12.85;;
17384;SDS011;8810;48.680;8.894;2022-08-19T01:36:46;20.45;;;13.45;;
17384;SDS011;8810;48.680;8.894;2022-08-19T01:39:15;19.33;;;13.20;;
17384;SDS011;8810;48.680;8.894;2022-08-19T01:41:46;20.90;;;14.13;;
17384;SDS011;8810;48.680;8.894;2022-08-19T01:44:14;20.40;;;13.32;;
17384;SDS011;8810;48.680;8.894;2022-08-19T01:46:42;19.13;;;13.13;;
17384;SDS011;8810;48.680;8.894;2022-08-19T01:49:10;20.02;;;12.95;;
17384;SDS011;8810;48.680;8.894;2022-08-19T01:51:37;21.10;;;13.77;;
17384;SDS011;8810;48.680;8.894;2022-08-19T01:54:04;19.67;;;13.90;;
17384;SDS011;8810;48.680;8.894;2022-08-19T01:56:31;20.17;;;13.82;;
17384;SDS011;8810;48.680;8.894;2022-08-19T01:59:00;22.23;;;14.25;;
17384;SDS011;8810;48.680;8.894;2022-08-19T02:01:30;19.50;;;13.75;;
17384;SDS011;8810;48.680;8.894;2022-08-19T02:03:57;18.05;;;13.27;;
17384;SDS011;8810;48.680;8.894;2022-08-19T02:06:25;19.20;;;11.98;;
17384;SDS011;8810;48.680;8.894;2022-08-19T02:08:53;21.02;;;13.80;;
17384;SDS011;8810;48.680;8.894;2022-08-19T02:11:21;19.42;;;13.77;;
17384;SDS011;8810;48.680;8.894;2022-08-19T02:13:51;20.33;;;13.95;;
17384;SDS011;8810;48.680;8.894;2022-08-19T02:16:20;22.25;;;13.93;;
17384;SDS011;8810;48.680;8.894;2022-08-19T02:18:47;21.30;;;14.73;;
17384;SDS011;8810;48.680;8.894;2022-08-19T02:21:15;22.13;;;13.88;;
17384;SDS011;8810;48.680;8.894;2022-08-19T02:23:42;18.48;;;13.65;;
17384;SDS011;8810;48.680;8.894;2022-08-19T02:26:10;20.25;;;13.77;;
17384;SDS011;8810;48.680;8.894;2022-08-19T02:28:38;20.00;;;14.52;;
17384;SDS011;8810;48.680;8.894;2022-08-19T02:31:08;19.73;;;13.82;;
17384;SDS011;8810;48.680;8.894;2022-08-19T02:33:37;18.67;;;13.93;;
17384;SDS011;8810;48.680;8.894;2022-08-19T02:36:05;25.65;;;15.13;;
17384;SDS011;8810;48.680;8.894;2022-08-19T02:38:33;21.10;;;14.70;;
17384;SDS011;8810;48.680;8.894;2022-08-19T02:41:01;21.45;;;15.60;;
17384;SDS011;8810;48.680;8.894;2022-08-19T02:43:30;20.13;;;14.20;;
17384;SDS011;8810;48.680;8.894;2022-08-19T02:46:00;20.48;;;13.60;;
17384;SDS011;8810;48.680;8.894;2022-08-19T02:48:28;18.52;;;13.60;;
17384;SDS011;8810;48.680;8.894;2022-08-19T02:50:59;18.17;;;13.57;;
17384;SDS011;8810;48.680;8.894;2022-08-19T02:53:26;20.77;;;14.70;;
17384;SDS011;8810;48.680;8.894;2022-08-19T02:55:54;24.17;;;14.98;;
17384;SDS011;8810;48.680;8.894;2022-08-19T02:58:21;20.73;;;13.65;;
17384;SDS011;8810;48.680;8.894;2022-08-19T03:00:51;22.55;;;15.73;;
17384;SDS011;8810;48.680;8.894;2022-08-19T03:03:20;23.88;;;14.48;;
17384;SDS011;8810;48.680;8.894;2022-08-19T03:05:48;21.65;;;14.70;;
17384;SDS011;8810;48.680;8.894;2022-08-19T03:08:16;21.08;;;14.77;;
17384;SDS011;8810;48.680;8.894;2022-08-19T03:10:44;20.20;;;14.90;;
17384;SDS011;8810;48.680;8.894;2022-08-19T03:13:13;20.48;;;14.70;;
17384;SDS011;8810;48.680;8.894;2022-08-19T03:15:41;22.02;;;14.82;;
17384;SDS011;8810;48.680;8.894;2022-08-19T03:18:10;21.05;;;14.75;;
17384;SDS011;8810;48.680;8.894;2022-08-19T03:20:41;21.90;;;14.80;;
17384;SDS011;8810;48.680;8.894;2022-08-19T03:23:09;21.55;;;14.40;;
17384;SDS011;8810;48.680;8.894;2022-08-19T03:25:39;21.75;;;15.18;;
17384;SDS011;8810;48.680;8.894;2022-08-19T03:28:08;22.08;;;15.63;;
17384;SDS011;8810;48.680;8.894;2022-08-19T03:30:35;21.77;;;15.43;;
17384;SDS011;8810;48.680;8.894;2022-08-19T03:33:02;23.15;;;15.75;;
17384;SDS011;8810;48.680;8.894;2022-08-19T03:35:29;22.13;;;16.08;;
17384;SDS011;8810;48.680;8.894;2022-08-19T03:37:56;24.70;;;16.30;;
17384;SDS011;8810;48.680;8.894;2022-08-19T03:40:24;25.05;;;16.52;;
17384;SDS011;8810;48.680;8.894;2022-08-19T03:42:52;23.80;;;16.30;;
17384;SDS011;8810;48.680;8.894;2022-08-19T03:45:19;21.73;;;15.55;;
17384;SDS011;8810;48.680;8.894;2022-08-19T03:47:46;24.52;;;16.23;;
17384;SDS011;8810;48.680;8.894;2022-08-19T03:52:41;25.73;;;17.35;;
17384;SDS011;8810;48.680;8.894;2022-08-19T03:55:08;25.83;;;16.83;;
17384;SDS011;8810;48.680;8.894;2022-08-19T03:57:35;29.02;;;17.42;;
17384;SDS011;8810;48.680;8.894;2022-08-19T04:00:04;25.70;;;16.45;;
17384;SDS011;8810;48.680;8.894;2022-08-19T04:02:32;25.40;;;17.05;;
17384;SDS011;8810;48.680;8.894;2022-08-19T04:04:59;27.73;;;18.05;;
17384;SDS011;8810;48.680;8.894;2022-08-19T04:07:26;24.67;;;17.38;;
17384;SDS011;8810;48.680;8.894;2022-08-19T04:09:53;24.48;;;17.02;;
17384;SDS011;8810;48.680;8.894;2022-08-19T04:12:20;25.23;;;16.25;;
17384;SDS011;8810;48.680;8.894;2022-08-19T04:14:47;26.27;;;17.60;;
17384;SDS011;8810;48.680;8.894;2022-08-19T04:17:15;28.95;;;18.23;;
17384;SDS011;8810;48.680;8.894;2022-08-19T04:19:42;27.08;;;17.83;;
17384;SDS011;8810;48.680;8.894;2022-08-19T04:22:09;24.65;;;16.38;;
17384;SDS011;8810;48.680;8.894;2022-08-19T04:24:36;26.38;;;18.60;;
17384;SDS011;8810;48.680;8.894;2022-08-19T04:27:04;30.33;;;18.92;;
17384;SDS011;8810;48.680;8.894;2022-08-19T04:29:31;30.73;;;18.95;;
17384;SDS011;8810;48.680;8.894;2022-08-19T04:31:59;27.45;;;18.33;;
17384;SDS011;8810;48.680;8.894;2022-08-19T04:34:27;26.70;;;16.92;;
17384;SDS011;8810;48.680;8.894;2022-08-19T04:36:55;29.40;;;17.45;;
17384;SDS011;8810;48.680;8.894;2022-08-19T04:39:24;28.38;;;17.10;;
17384;SDS011;8810;48.680;8.894;2022-08-19T04:42:14;28.13;;;17.35;;
17384;SDS011;8810;48.680;8.894;2022-08-19T04:44:59;23.63;;;16.45;;
17384;SDS011;8810;48.680;8.894;2022-08-19T04:47:29;26.38;;;17.35;;
17384;SDS011;8810;48.680;8.894;2022-08-19T04:49:57;26.55;;;17.20;;
17384;SDS011;8810;48.680;8.894;2022-08-19T04:52:24;25.83;;;18.05;;
17384;SDS011;8810;48.680;8.894;2022-08-19T04:54:51;29.40;;;18.63;;
17384;SDS011;8810;48.680;8.894;2022-08-19T04:57:20;28.17;;;18.67;;
17384;SDS011;8810;48.680;8.894;2022-08-19T04:59:47;29.67;;;18.55;;
17384;SDS011;8810;48.680;8.894;2022-08-19T05:02:14;32.70;;;20.13;;
17384;SDS011;8810;48.680;8.894;2022-08-19T05:04:41;33.00;;;20.05;;
17384;SDS011;8810;48.680;8.894;2022-08-19T05:07:09;28.80;;;18.67;;
17384;SDS011;8810;48.680;8.894;2022-08-19T05:09:37;29.35;;;17.90;;
17384;SDS011;8810;48.680;8.894;2022-08-19T05:12:04;26.83;;;18.67;;
17384;SDS011;8810;48.680;8.894;2022-08-19T05:14:33;32.97;;;20.08;;
17384;SDS011;8810;48.680;8.894;2022-08-19T05:17:01;28.45;;;18.27;;
17384;SDS011;8810;48.680;8.894;2022-08-19T05:19:28;25.83;;;17.45;;
17384;SDS011;8810;48.680;8.894;2022-08-19T05:22:14;28.67;;;18.27;;
17384;SDS011;8810;48.680;8.894;2022-08-19T05:25:01;27.30;;;18.27;;
17384;SDS011;8810;48.680;8.894;2022-08-19T05:27:30;24.25;;;17.50;;
17384;SDS011;8810;48.680;8.894;2022-08-19T05:29:58;29.20;;;18.52;;
17384;SDS011;8810;48.680;8.894;2022-08-19T05:32:25;29.52;;;18.52;;
17384;SDS011;8810;48.680;8.894;2022-08-19T05:34:52;25.88;;;17.88;;
17384;SDS011;8810;48.680;8.894;2022-08-19T05:37:20;23.42;;;16.60;;
17384;SDS011;8810;48.680;8.894;2022-08-19T05:39:47;23.75;;;16.52;;
17384;SDS011;8810;48.680;8.894;2022-08-19T05:42:15;26.85;;;18.17;;
17384;SDS011;8810;48.680;8.894;2022-08-19T05:44:43;25.77;;;18.10;;
17384;SDS011;8810;48.680;8.894;2022-08-19T05:47:10;28.77;;;17.63;;
17384;SDS011;8810;48.680;8.894;2022-08-19T05:49:40;27.42;;;18.88;;
17384;SDS011;8810;48.680;8.894;2022-08-19T05:52:08;25.52;;;17.83;;
17384;SDS011;8810;48.680;8.894;2022-08-19T05:54:39;28.45;;;18.05;;
17384;SDS011;8810;48.680;8.894;2022-08-19T05:57:07;27.58;;;18.48;;
17384;SDS011;8810;48.680;8.894;2022-08-19T05:59:35;28.13;;;18.65;;
17384;SDS011;8810;48.680;8.894;2022-08-19T06:02:02;25.15;;;17.67;;
17384;SDS011;8810;48.680;8.894;2022-08-19T06:04:31;26.40;;;18.20;;
17384;SDS011;8810;48.680;8.894;2022-08-19T06:06:58;25.73;;;17.55;;
17384;SDS011;8810;48.680;8.894;2022-08-19T06:09:27;25.85;;;17.95;;
17384;SDS011;8810;48.680;8.894;2022-08-19T06:11:56;25.67;;;17.70;;
17384;SDS011;8810;48.680;8.894;2022-08-19T06:14:26;26.70;;;18.05;;
17384;SDS011;8810;48.680;8.894;2022-08-19T06:16:55;29.38;;;17.92;;
17384;SDS011;8810;48.680;8.894;2022-08-19T06:19:23;33.25;;;17.90;;
17384;SDS011;8810;48.680;8.894;2022-08-19T06:21:51;27.30;;;17.90;;
17384;SDS011;8810;48.680;8.894;2022-08-19T06:24:19;29.30;;;19.73;;
17384;SDS011;8810;48.680;8.894;2022-08-19T06:26:49;27.63;;;18.08;;
17384;SDS011;8810;48.680;8.894;2022-08-19T06:29:19;27.50;;;18.30;;
17384;SDS011;8810;48.680;8.894;2022-08-19T06:31:48;25.45;;;17.55;;
17384;SDS011;8810;48.680;8.894;2022-08-19T06:34:16;27.42;;;18.00;;
17384;SDS011;8810;48.680;8.894;2022-08-19T06:36:45;27.92;;;18.58;;
17384;SDS011;8810;48.680;8.894;2022-08-19T06:39:14;24.20;;;16.88;;
17384;SDS011;8810;48.680;8.894;2022-08-19T06:41:43;27.20;;;18.20;;
17384;SDS011;8810;48.680;8.894;2022-08-19T06:44:12;27.13;;;17.58;;
17384;SDS011;8810;48.680;8.894;2022-08-19T06:46:41;25.40;;;17.45;;
17384;SDS011;8810;48.680;8.894;2022-08-19T06:49:08;24.40;;;16.55;;
17384;SDS011;8810;48.680;8.894;2022-08-19T06:51:39;27.13;;;17.02;;
17384;SDS011;8810;48.680;8.894;2022-08-19T06:54:06;24.00;;;16.83;;
17384;SDS011;8810;48.680;8.894;2022-08-19T06:56:33;24.35;;;16.63;;
17384;SDS011;8810;48.680;8.894;2022-08-19T06:59:01;27.13;;;16.75;;
17384;SDS011;8810;48.680;8.894;2022-08-19T07:01:29;26.38;;;16.48;;
17384;SDS011;8810;48.680;8.894;2022-08-19T07:04:14;24.25;;;15.32;;
17384;SDS011;8810;48.680;8.894;2022-08-19T07:06:47;22.73;;;15.63;;
17384;SDS011;8810;48.680;8.894;2022-08-19T07:09:15;22.92;;;15.05;;
17384;SDS011;8810;48.680;8.894;2022-08-19T07:11:44;23.20;;;14.93;;
17384;SDS011;8810;48.680;8.894;2022-08-19T07:14:12;24.00;;;15.77;;
17384;SDS011;8810;48.680;8.894;2022-08-19T07:16:42;22.52;;;15.82;;
17384;SDS011;8810;48.680;8.894;2022-08-19T07:19:12;23.63;;;15.02;;
17384;SDS011;8810;48.680;8.894;2022-08-19T07:21:39;21.55;;;14.43;;
17384;SDS011;8810;48.680;8.894;2022-08-19T07:24:06;20.17;;;14.65;;
17384;SDS011;8810;48.680;8.894;2022-08-19T07:26:37;22.92;;;14.35;;
17384;SDS011;8810;48.680;8.894;2022-08-19T07:29:05;22.45;;;13.75;;
17384;SDS011;8810;48.680;8.894;2022-08-19T07:31:32;25.05;;;15.05;;
17384;SDS011;8810;48.680;8.894;2022-08-19T07:34:02;18.10;;;13.68;;
17384;SDS011;8810;48.680;8.894;2022-08-19T07:36:34;20.75;;;14.45;;
17384;SDS011;8810;48.680;8.894;2022-08-19T07:39:05;17.17;;;12.85;;
17384;SDS011;8810;48.680;8.894;2022-08-19T07:41:34;23.52;;;14.15;;
17384;SDS011;8810;48.680;8.894;2022-08-19T07:44:02;18.70;;;13.20;;
17384;SDS011;8810;48.680;8.894;2022-08-19T07:46:30;18.02;;;13.25;;
17384;SDS011;8810;48.680;8.894;2022-08-19T07:48:57;20.65;;;13.25;;
17384;SDS011;8810;48.680;8.894;2022-08-19T07:51:25;20.65;;;12.70;;
17384;SDS011;8810;48.680;8.894;2022-08-19T07:53:54;21.80;;;13.98;;
17384;SDS011;8810;48.680;8.894;2022-08-19T07:56:21;19.58;;;14.32;;
17384;SDS011;8810;48.680;8.894;2022-08-19T07:58:49;20.13;;;12.95;;
17384;SDS011;8810;48.680;8.894;2022-08-19T08:01:18;23.45;;;13.98;;
17384;SDS011;8810;48.680;8.894;2022-08-19T08:03:46;21.58;;;13.88;;
17384;SDS011;8810;48.680;8.894;2022-08-19T08:06:31;15.45;;;12.15;;
17384;SDS011;8810;48.680;8.894;2022-08-19T08:09:30;18.83;;;13.38;;
17384;SDS011;8810;48.680;8.894;2022-08-19T08:11:59;19.13;;;13.65;;
17384;SDS011;8810;48.680;8.894;2022-08-19T08:14:29;17.95;;;12.48;;
17384;SDS011;8810;48.680;8.894;2022-08-19T08:16:58;18.73;;;11.98;;
17384;SDS011;8810;48.680;8.894;2022-08-19T08:19:26;16.17;;;11.98;;
17384;SDS011;8810;48.680;8.894;2022-08-19T08:21:54;16.70;;;12.27;;
17384;SDS011;8810;48.680;8.894;2022-08-19T08:24:23;19.58;;;12.07;;
17384;SDS011;8810;48.680;8.894;2022-08-19T08:26:52;14.15;;;11.57;;
17384;SDS011;8810;48.680;8.894;2022-08-19T08:29:19;14.73;;;11.23;;
17384;SDS011;8810;48.680;8.894;2022-08-19T08:31:46;17.10;;;12.82;;
17384;SDS011;8810;48.680;8.894;2022-08-19T08:34:13;17.02;;;12.07;;
17384;SDS011;8810;48.680;8.894;2022-08-19T08:36:41;15.05;;;11.18;;
17384;SDS011;8810;48.680;8.894;2022-08-19T08:39:10;20.50;;;11.98;;
17384;SDS011;8810;48.680;8.894;2022-08-19T08:41:41;13.60;;;10.77;;
17384;SDS011;8810;48.680;8.894;2022-08-19T08:44:16;17.85;;;11.43;;
17384;SDS011;8810;48.680;8.894;2022-08-19T08:46:46;19.05;;;12.00;;
17384;SDS011;8810;48.680;8.894;2022-08-19T08:49:19;16.58;;;11.85;;
17384;SDS011;8810;48.680;8.894;2022-08-19T08:51:54;15.75;;;12.02;;
17384;SDS011;8810;48.680;8.894;2022-08-19T08:54:28;21.42;;;12.55;;
17384;SDS011;8810;48.680;8.894;2022-08-19T08:57:02;16.73;;;11.93;;
17384;SDS011;8810;48.680;8.894;2022-08-19T08:59:35;18.85;;;12.50;;
17384;SDS011;8810;48.680;8.894;2022-08-19T09:02:05;16.90;;;11.77;;
17384;SDS011;8810;48.680;8.894;2022-08-19T09:04:33;17.92;;;12.18;;
17384;SDS011;8810;48.680;8.894;2022-08-19T09:09:52;18.83;;;12.32;;
17384;SDS011;8810;48.680;8.894;2022-08-19T09:12:25;16.58;;;12.38;;
17384;SDS011;8810;48.680;8.894;2022-08-19T09:15:05;19.00;;;12.63;;
17384;SDS011;8810;48.680;8.894;2022-08-19T09:17:35;16.10;;;12.75;;
17384;SDS011;8810;48.680;8.894;2022-08-19T09:20:04;17.83;;;13.48;;
17384;SDS011;8810;48.680;8.894;2022-08-19T09:22:40;16.50;;;12.40;;
17384;SDS011;8810;48.680;8.894;2022-08-19T09:25:09;17.25;;;12.48;;
17384;SDS011;8810;48.680;8.894;2022-08-19T09:27:38;20.85;;;13.65;;
17384;SDS011;8810;48.680;8.894;2022-08-19T09:30:09;17.73;;;12.18;;
17384;SDS011;8810;48.680;8.894;2022-08-19T09:32:39;18.90;;;12.95;;
17384;SDS011;8810;48.680;8.894;2022-08-19T09:35:07;19.40;;;13.48;;
17384;SDS011;8810;48.680;8.894;2022-08-19T09:37:35;17.88;;;13.73;;
17384;SDS011;8810;48.680;8.894;2022-08-19T09:40:03;20.23;;;13.88;;
17384;SDS011;8810;48.680;8.894;2022-08-19T09:42:32;18.65;;;11.90;;
17384;SDS011;8810;48.680;8.894;2022-08-19T09:44:59;16.23;;;11.80;;
17384;SDS011;8810;48.680;8.894;2022-08-19T09:47:28;16.77;;;12.73;;
17384;SDS011;8810;48.680;8.894;2022-08-19T09:49:55;17.80;;;12.23;;
17384;SDS011;8810;48.680;8.894;2022-08-19T09:52:22;16.10;;;12.68;;
17384;SDS011;8810;48.680;8.894;2022-08-19T09:54:51;17.38;;;11.88;;
17384;SDS011;8810;48.680;8.894;2022-08-19T09:57:18;15.05;;;11.18;;
17384;SDS011;8810;48.680;8.894;2022-08-19T09:59:45;20.83;;;12.20;;
17384;SDS011;8810;48.680;8.894;2022-08-19T10:02:12;17.52;;;12.00;;
17384;SDS011;8810;48.680;8.894;2022-08-19T10:04:41;16.60;;;12.05;;
17384;SDS011;8810;48.680;8.894;2022-08-19T10:07:25;16.40;;;12.15;;
17384;SDS011;8810;48.680;8.894;2022-08-19T10:09:52;17.25;;;11.73;;
17384;SDS011;8810;48.680;8.894;2022-08-19T10:12:19;18.60;;;13.02;;
17384;SDS011;8810;48.680;8.894;2022-08-19T10:14:47;15.98;;;11.65;;
17384;SDS011;8810;48.680;8.894;2022-08-19T10:17:16;16.83;;;11.63;;
17384;SDS011;8810;48.680;8.894;2022-08-19T10:19:44;15.93;;;11.52;;
17384;SDS011;8810;48.680;8.894;2022-08-19T10:22:12;30.77;;;11.60;;
17384;SDS011;8810;48.680;8.894;2022-08-19T10:24:39;13.93;;;10.63;;
17384;SDS011;8810;48.680;8.894;2022-08-19T10:27:07;15.98;;;11.18;;
17384;SDS011;8810;48.680;8.894;2022-08-19T10:29:34;13.98;;;10.63;;
17384;SDS011;8810;48.680;8.894;2022-08-19T10:32:02;17.10;;;10.63;;
17384;SDS011;8810;48.680;8.894;2022-08-19T10:34:33;11.88;;;9.35;;
17384;SDS011;8810;48.680;8.894;2022-08-19T10:37:02;14.00;;;9.43;;
17384;SDS011;8810;48.680;8.894;2022-08-19T10:39:31;13.48;;;9.40;;
17384;SDS011;8810;48.680;8.894;2022-08-19T10:42:03;13.63;;;9.63;;
17384;SDS011;8810;48.680;8.894;2022-08-19T10:44:31;11.65;;;9.35;;
17384;SDS011;8810;48.680;8.894;2022-08-19T10:47:00;13.15;;;8.73;;
17384;SDS011;8810;48.680;8.894;2022-08-19T10:49:27;14.40;;;9.40;;
17384;SDS011;8810;48.680;8.894;2022-08-19T10:51:54;12.63;;;9.63;;
17384;SDS011;8810;48.680;8.894;2022-08-19T10:54:40;12.93;;;8.85;;
17384;SDS011;8810;48.680;8.894;2022-08-19T10:57:25;11.20;;;8.45;;
17384;SDS011;8810;48.680;8.894;2022-08-19T10:59:54;11.45;;;8.95;;
17384;SDS011;8810;48.680;8.894;2022-08-19T11:02:22;9.95;;;8.10;;
17384;SDS011;8810;48.680;8.894;2022-08-19T11:04:49;9.57;;;8.05;;
17384;SDS011;8810;48.680;8.894;2022-08-19T11:07:16;13.25;;;7.82;;
17384;SDS011;8810;48.680;8.894;2022-08-19T11:09:44;11.90;;;8.07;;
17384;SDS011;8810;48.680;8.894;2022-08-19T11:12:12;10.65;;;7.85;;
17384;SDS011;8810;48.680;8.894;2022-08-19T11:14:40;10.20;;;7.45;;
17384;SDS011;8810;48.680;8.894;2022-08-19T11:17:07;9.13;;;6.65;;
17384;SDS011;8810;48.680;8.894;2022-08-19T11:19:35;9.70;;;7.25;;
17384;SDS011;8810;48.680;8.894;2022-08-19T11:22:02;10.57;;;7.15;;
17384;SDS011;8810;48.680;8.894;2022-08-19T11:24:30;10.60;;;7.93;;
17384;SDS011;8810;48.680;8.894;2022-08-19T11:27:02;9.75;;;7.43;;
17384;SDS011;8810;48.680;8.894;2022-08-19T11:29:30;9.90;;;7.55;;
17384;SDS011;8810;48.680;8.894;2022-08-19T11:31:59;11.05;;;7.45;;
17384;SDS011;8810;48.680;8.894;2022-08-19T11:34:29;12.85;;;7.18;;
17384;SDS011;8810;48.680;8.894;2022-08-19T11:36:57;10.55;;;6.80;;
17384;SDS011;8810;48.680;8.894;2022-08-19T11:39:25;9.93;;;7.05;;
17384;SDS011;8810;48.680;8.894;2022-08-19T11:41:55;8.88;;;6.53;;
17384;SDS011;8810;48.680;8.894;2022-08-19T11:44:24;10.82;;;8.07;;
17384;SDS011;8810;48.680;8.894;2022-08-19T11:46:52;9.27;;;6.97;;
17384;SDS011;8810;48.680;8.894;2022-08-19T11:49:19;10.93;;;6.82;;
17384;SDS011;8810;48.680;8.894;2022-08-19T11:51:47;11.10;;;7.10;;
17384;SDS011;8810;48.680;8.894;2022-08-19T11:54:16;9.13;;;7.22;;
17384;SDS011;8810;48.680;8.894;2022-08-19T11:56:43;9.60;;;7.20;;
17384;SDS011;8810;48.680;8.894;2022-08-19T11:59:11;10.52;;;7.40;;
17384;SDS011;8810;48.680;8.894;2022-08-19T12:01:39;8.23;;;6.70;;
17384;SDS011;8810;48.680;8.894;2022-08-19T12:04:08;8.27;;;6.45;;
17384;SDS011;8810;48.680;8.894;2022-08-19T12:06:37;9.82;;;6.78;;
17384;SDS011;8810;48.680;8.894;2022-08-19T12:09:05;9.93;;;6.35;;
17384;SDS011;8810;48.680;8.894;2022-08-19T12:11:33;9.02;;;6.05;;
17384;SDS011;8810;48.680;8.894;2022-08-19T12:14:01;8.07;;;5.90;;
17384;SDS011;8810;48.680;8.894;2022-08-19T12:16:29;8.35;;;6.05;;
17384;SDS011;8810;48.680;8.894;2022-08-19T12:18:59;9.52;;;6.25;;
17384;SDS011;8810;48.680;8.894;2022-08-19T12:21:29;7.35;;;5.40;;
17384;SDS011;8810;48.680;8.894;2022-08-19T12:23:58;5.68;;;5.10;;
17384;SDS011;8810;48.680;8.894;2022-08-19T12:26:26;5.70;;;5.10;;
17384;SDS011;8810;48.680;8.894;2022-08-19T12:28:56;7.53;;;4.63;;
17384;SDS011;8810;48.680;8.894;2022-08-19T12:31:24;5.80;;;5.13;;
17384;SDS011;8810;48.680;8.894;2022-08-19T12:33:51;6.05;;;5.13;;
17384;SDS011;8810;48.680;8.894;2022-08-19T12:36:21;5.70;;;5.07;;
17384;SDS011;8810;48.680;8.894;2022-08-19T12:38:49;5.80;;;5.18;;
17384;SDS011;8810;48.680;8.894;2022-08-19T12:41:18;5.60;;;5.10;;
17384;SDS011;8810;48.680;8.894;2022-08-19T12:43:47;6.50;;;4.93;;
17384;SDS011;8810;48.680;8.894;2022-08-19T12:46:14;5.40;;;4.70;;
17384;SDS011;8810;48.680;8.894;2022-08-19T12:48:41;5.63;;;5.03;;
17384;SDS011;8810;48.680;8.894;2022-08-19T12:51:10;5.45;;;4.90;;
17384;SDS011;8810;48.680;8.894;2022-08-19T12:53:40;5.38;;;4.70;;
17384;SDS011;8810;48.680;8.894;2022-08-19T12:56:08;5.10;;;4.60;;
17384;SDS011;8810;48.680;8.894;2022-08-19T12:58:36;6.90;;;4.85;;
17384;SDS011;8810;48.680;8.894;2022-08-19T13:01:06;5.43;;;4.60;;
17384;SDS011;8810;48.680;8.894;2022-08-19T13:03:34;8.57;;;4.53;;
17384;SDS011;8810;48.680;8.894;2022-08-19T13:06:01;6.53;;;4.40;;
17384;SDS011;8810;48.680;8.894;2022-08-19T13:08:29;5.35;;;4.55;;
17384;SDS011;8810;48.680;8.894;2022-08-19T13:10:57;8.05;;;4.63;;
17384;SDS011;8810;48.680;8.894;2022-08-19T13:13:32;5.65;;;4.50;;
17384;SDS011;8810;48.680;8.894;2022-08-19T13:15:59;5.28;;;4.78;;
17384;SDS011;8810;48.680;8.894;2022-08-19T13:18:28;5.95;;;4.80;;
17384;SDS011;8810;48.680;8.894;2022-08-19T13:20:55;7.35;;;5.88;;
17384;SDS011;8810;48.680;8.894;2022-08-19T13:23:22;10.73;;;6.38;;
17384;SDS011;8810;48.680;8.894;2022-08-19T13:25:56;8.15;;;6.32;;
17384;SDS011;8810;48.680;8.894;2022-08-19T13:28:24;8.90;;;5.68;;
17384;SDS011;8810;48.680;8.894;2022-08-19T13:30:51;8.32;;;6.07;;
17384;SDS011;8810;48.680;8.894;2022-08-19T13:33:35;7.10;;;6.15;;
17384;SDS011;8810;48.680;8.894;2022-08-19T13:36:02;6.70;;;5.97;;
17384;SDS011;8810;48.680;8.894;2022-08-19T13:38:32;7.57;;;6.18;;
17384;SDS011;8810;48.680;8.894;2022-08-19T13:41:05;8.57;;;6.47;;
17384;SDS011;8810;48.680;8.894;2022-08-19T13:43:33;7.15;;;6.45;;
17384;SDS011;8810;48.680;8.894;2022-08-19T13:46:00;11.00;;;6.60;;
17384;SDS011;8810;48.680;8.894;2022-08-19T13:48:35;7.20;;;6.25;;
17384;SDS011;8810;48.680;8.894;2022-08-19T13:51:04;8.90;;;6.40;;
17384;SDS011;8810;48.680;8.894;2022-08-19T13:53:34;10.20;;;6.47;;
17384;SDS011;8810;48.680;8.894;2022-08-19T13:56:06;8.85;;;6.15;;
17384;SDS011;8810;48.680;8.894;2022-08-19T13:58:33;6.82;;;5.95;;
17384;SDS011;8810;48.680;8.894;2022-08-19T14:01:01;7.13;;;6.35;;
17384;SDS011;8810;48.680;8.894;2022-08-19T14:03:29;8.30;;;6.18;;
17384;SDS011;8810;48.680;8.894;2022-08-19T14:05:59;7.22;;;6.53;;
17384;SDS011;8810;48.680;8.894;2022-08-19T14:08:32;8.90;;;6.35;;
17384;SDS011;8810;48.680;8.894;2022-08-19T14:10:59;7.60;;;6.28;;
17384;SDS011;8810;48.680;8.894;2022-08-19T14:13:27;8.55;;;6.20;;
17384;SDS011;8810;48.680;8.894;2022-08-19T14:15:54;6.80;;;6.03;;
17384;SDS011;8810;48.680;8.894;2022-08-19T14:18:21;7.53;;;6.30;;
17384;SDS011;8810;48.680;8.894;2022-08-19T14:20:50;7.22;;;6.53;;
17384;SDS011;8810;48.680;8.894;2022-08-19T14:23:17;6.72;;;6.13;;
17384;SDS011;8810;48.680;8.894;2022-08-19T14:25:45;7.25;;;6.40;;
17384;SDS011;8810;48.680;8.894;2022-08-19T14:28:12;6.72;;;6.03;;
17384;SDS011;8810;48.680;8.894;2022-08-19T14:30:40;8.30;;;6.30;;
17384;SDS011;8810;48.680;8.894;2022-08-19T14:33:09;7.70;;;5.55;;
17384;SDS011;8810;48.680;8.894;2022-08-19T14:35:36;7.38;;;6.35;;
17384;SDS011;8810;48.680;8.894;2022-08-19T14:38:04;7.60;;;6.25;;
17384;SDS011;8810;48.680;8.894;2022-08-19T14:40:32;13.77;;;5.93;;
17384;SDS011;8810;48.680;8.894;2022-08-19T14:43:00;9.18;;;6.40;;
17384;SDS011;8810;48.680;8.894;2022-08-19T14:45:29;6.40;;;5.68;;
17384;SDS011;8810;48.680;8.894;2022-08-19T14:47:59;6.00;;;5.32;;
17384;SDS011;8810;48.680;8.894;2022-08-19T14:50:26;6.78;;;4.97;;
17384;SDS011;8810;48.680;8.894;2022-08-19T14:52:57;7.50;;;5.68;;
17384;SDS011;8810;48.680;8.894;2022-08-19T14:55:25;6.30;;;5.68;;